sensor_id;sensor_type;location;lat;lon;timestamp;temperature;humidity
13346;DHT22;6742;48.036;15.780;2023-11-19T00:00:02;2.20;99.90
13346;DHT22;6742;48.036;15.780;2023-11-19T00:02:30;2.20;99.90
13346;DHT22;6742;48.036;15.780;2023-11-19T00:04:57;2.20;99.90
13346;DHT22;6742;48.036;15.780;2023-11-19T00:07:23;2.20;99.90
13346;DHT22;6742;48.036;15.780;2023-11-19T00:09:50;2.20;99.90
13346;DHT22;6742;48.036;15.780;2023-11-19T00:12:17;2.20;99.90
13346;DHT22;6742;48.036;15.780;2023-11-19T00:14:44;2.20;99.90
13346;DHT22;6742;48.036;15.780;2023-11-19T00:17:12;2.30;99.90
13346;DHT22;6742;48.036;15.780;2023-11-19T00:19:39;2.30;99.90
13346;DHT22;6742;48.036;15.780;2023-11-19T00:22:07;2.30;99.90
13346;DHT22;6742;48.036;15.780;2023-11-19T00:24:33;2.30;99.90
13346;DHT22;6742;48.036;15.780;2023-11-19T00:27:00;2.30;99.90
13346;DHT22;6742;48.036;15.780;2023-11-19T00:29:28;2.30;99.90
13346;DHT22;6742;48.036;15.780;2023-11-19T00:31:54;2.30;99.90
13346;DHT22;6742;48.036;15.780;2023-11-19T00:34:23;2.30;99.90
13346;DHT22;6742;48.036;15.780;2023-11-19T00:36:50;2.40;99.90
13346;DHT22;6742;48.036;15.780;2023-11-19T00:39:17;2.40;99.90
13346;DHT22;6742;48.036;15.780;2023-11-19T00:41:46;2.40;99.90
13346;DHT22;6742;48.036;15.780;2023-11-19T00:44:13;2.40;99.90
13346;DHT22;6742;48.036;15.780;2023-11-19T00:46:40;2.40;99.90
13346;DHT22;6742;48.036;15.780;2023-11-19T00:49:07;2.40;99.90
13346;DHT22;6742;48.036;15.780;2023-11-19T00:51:38;2.40;99.90
13346;DHT22;6742;48.036;15.780;2023-11-19T00:54:05;2.40;99.90
13346;DHT22;6742;48.036;15.780;2023-11-19T00:56:32;2.40;99.90
13346;DHT22;6742;48.036;15.780;2023-11-19T00:58:59;2.40;99.90
13346;DHT22;6742;48.036;15.780;2023-11-19T01:01:26;2.40;99.90
13346;DHT22;6742;48.036;15.780;2023-11-19T01:03:53;2.30;99.90
13346;DHT22;6742;48.036;15.780;2023-11-19T01:06:32;2.20;99.90
13346;DHT22;6742;48.036;15.780;2023-11-19T01:09:00;2.20;99.90
13346;DHT22;6742;48.036;15.780;2023-11-19T01:11:28;2.30;99.90
13346;DHT22;6742;48.036;15.780;2023-11-19T01:13:55;2.30;99.90
13346;DHT22;6742;48.036;15.780;2023-11-19T01:16:22;2.30;99.90
13346;DHT22;6742;48.036;15.780;2023-11-19T01:18:51;2.20;99.90
13346;DHT22;6742;48.036;15.780;2023-11-19T01:21:19;2.20;99.90
13346;DHT22;6742;48.036;15.780;2023-11-19T01:23:47;2.20;99.90
13346;DHT22;6742;48.036;15.780;2023-11-19T01:26:15;2.20;99.90
13346;DHT22;6742;48.036;15.780;2023-11-19T01:28:42;2.20;99.90
13346;DHT22;6742;48.036;15.780;2023-11-19T01:31:12;2.20;99.90
13346;DHT22;6742;48.036;15.780;2023-11-19T01:33:41;2.20;99.90
13346;DHT22;6742;48.036;15.780;2023-11-19T01:36:12;2.20;99.90
13346;DHT22;6742;48.036;15.780;2023-11-19T01:38:39;2.20;99.90
13346;DHT22;6742;48.036;15.780;2023-11-19T01:41:06;2.20;99.90
13346;DHT22;6742;48.036;15.780;2023-11-19T01:43:36;2.20;99.90
13346;DHT22;6742;48.036;15.780;2023-11-19T01:46:02;2.20;99.90
13346;DHT22;6742;48.036;15.780;2023-11-19T01:48:31;2.20;99.90
13346;DHT22;6742;48.036;15.780;2023-11-19T01:51:00;2.20;99.90
13346;DHT22;6742;48.036;15.780;2023-11-19T01:53:27;2.20;99.90
13346;DHT22;6742;48.036;15.780;2023-11-19T01:55:55;2.20;99.90
13346;DHT22;6742;48.036;15.780;2023-11-19T01:58:23;2.20;99.90
13346;DHT22;6742;48.036;15.780;2023-11-19T02:00:52;2.30;99.90
13346;DHT22;6742;48.036;15.780;2023-11-19T02:03:20;2.30;99.90
13346;DHT22;6742;48.036;15.780;2023-11-19T02:05:48;2.30;99.90
13346;DHT22;6742;48.036;15.780;2023-11-19T02:08:16;2.20;99.90
13346;DHT22;6742;48.036;15.780;2023-11-19T02:10:43;2.30;99.90
13346;DHT22;6742;48.036;15.780;2023-11-19T02:13:11;2.30;99.90
13346;DHT22;6742;48.036;15.780;2023-11-19T02:15:40;2.30;99.90
13346;DHT22;6742;48.036;15.780;2023-11-19T02:18:19;2.30;99.90
13346;DHT22;6742;48.036;15.780;2023-11-19T02:20:47;2.30;99.90
13346;DHT22;6742;48.036;15.780;2023-11-19T02:23:15;2.30;99.90
13346;DHT22;6742;48.036;15.780;2023-11-19T02:25:43;2.40;99.90
13346;DHT22;6742;48.036;15.780;2023-11-19T02:28:17;2.40;99.90
13346;DHT22;6742;48.036;15.780;2023-11-19T02:30:44;2.40;99.90
13346;DHT22;6742;48.036;15.780;2023-11-19T02:33:11;2.50;99.90
13346;DHT22;6742;48.036;15.780;2023-11-19T02:35:38;2.40;99.90
13346;DHT22;6742;48.036;15.780;2023-11-19T02:38:06;2.50;99.90
13346;DHT22;6742;48.036;15.780;2023-11-19T02:40:33;2.50;99.90
13346;DHT22;6742;48.036;15.780;2023-11-19T02:43:00;2.50;99.90
13346;DHT22;6742;48.036;15.780;2023-11-19T02:45:31;2.50;99.90
13346;DHT22;6742;48.036;15.780;2023-11-19T02:47:58;2.50;99.90
13346;DHT22;6742;48.036;15.780;2023-11-19T02:50:27;2.50;99.90
13346;DHT22;6742;48.036;15.780;2023-11-19T02:52:55;2.50;99.90
13346;DHT22;6742;48.036;15.780;2023-11-19T02:55:22;2.50;99.90
13346;DHT22;6742;48.036;15.780;2023-11-19T02:57:50;2.50;99.90
13346;DHT22;6742;48.036;15.780;2023-11-19T03:00:20;2.60;99.90
13346;DHT22;6742;48.036;15.780;2023-11-19T03:02:51;2.60;99.90
13346;DHT22;6742;48.036;15.780;2023-11-19T03:05:25;2.60;99.90
13346;DHT22;6742;48.036;15.780;2023-11-19T03:07:52;2.60;99.90
13346;DHT22;6742;48.036;15.780;2023-11-19T03:10:19;2.60;99.90
13346;DHT22;6742;48.036;15.780;2023-11-19T03:12:46;2.60;99.90
13346;DHT22;6742;48.036;15.780;2023-11-19T03:15:12;2.60;99.90
13346;DHT22;6742;48.036;15.780;2023-11-19T03:17:40;2.70;99.90
13346;DHT22;6742;48.036;15.780;2023-11-19T03:20:10;2.70;99.90
13346;DHT22;6742;48.036;15.780;2023-11-19T03:22:40;2.70;99.90
13346;DHT22;6742;48.036;15.780;2023-11-19T03:25:08;2.70;99.90
13346;DHT22;6742;48.036;15.780;2023-11-19T03:27:35;2.70;99.90
13346;DHT22;6742;48.036;15.780;2023-11-19T03:30:02;2.70;99.90
13346;DHT22;6742;48.036;15.780;2023-11-19T03:32:30;2.70;99.90
13346;DHT22;6742;48.036;15.780;2023-11-19T03:34:58;2.70;99.90
13346;DHT22;6742;48.036;15.780;2023-11-19T03:37:26;2.70;99.90
13346;DHT22;6742;48.036;15.780;2023-11-19T03:39:53;2.70;99.90
13346;DHT22;6742;48.036;15.780;2023-11-19T03:42:25;2.60;99.90
13346;DHT22;6742;48.036;15.780;2023-11-19T03:44:52;2.60;99.90
13346;DHT22;6742;48.036;15.780;2023-11-19T03:47:19;2.60;99.90
13346;DHT22;6742;48.036;15.780;2023-11-19T03:49:48;2.60;99.90
13346;DHT22;6742;48.036;15.780;2023-11-19T03:52:15;2.60;99.90
13346;DHT22;6742;48.036;15.780;2023-11-19T03:54:44;2.60;99.90
13346;DHT22;6742;48.036;15.780;2023-11-19T03:57:12;2.60;99.90
13346;DHT22;6742;48.036;15.780;2023-11-19T03:59:39;2.60;99.90
13346;DHT22;6742;48.036;15.780;2023-11-19T04:02:06;2.70;99.90
13346;DHT22;6742;48.036;15.780;2023-11-19T04:04:33;2.60;99.90
13346;DHT22;6742;48.036;15.780;2023-11-19T04:07:00;2.70;99.90
13346;DHT22;6742;48.036;15.780;2023-11-19T04:09:28;2.70;99.90
13346;DHT22;6742;48.036;15.780;2023-11-19T04:11:57;2.70;99.90
13346;DHT22;6742;48.036;15.780;2023-11-19T04:14:24;2.70;99.90
13346;DHT22;6742;48.036;15.780;2023-11-19T04:16:51;2.70;99.90
13346;DHT22;6742;48.036;15.780;2023-11-19T04:19:18;2.70;99.90
13346;DHT22;6742;48.036;15.780;2023-11-19T04:21:45;2.80;99.90
13346;DHT22;6742;48.036;15.780;2023-11-19T04:24:13;2.80;99.90
13346;DHT22;6742;48.036;15.780;2023-11-19T04:26:41;2.80;99.90
13346;DHT22;6742;48.036;15.780;2023-11-19T04:29:11;2.80;99.90
13346;DHT22;6742;48.036;15.780;2023-11-19T04:31:39;2.80;99.90
13346;DHT22;6742;48.036;15.780;2023-11-19T04:34:06;2.90;99.90
13346;DHT22;6742;48.036;15.780;2023-11-19T04:36:33;2.90;99.90
13346;DHT22;6742;48.036;15.780;2023-11-19T04:39:00;2.90;99.90
13346;DHT22;6742;48.036;15.780;2023-11-19T04:41:28;2.90;99.90
13346;DHT22;6742;48.036;15.780;2023-11-19T04:43:55;2.90;99.90
13346;DHT22;6742;48.036;15.780;2023-11-19T04:46:23;2.90;99.90
13346;DHT22;6742;48.036;15.780;2023-11-19T04:48:50;2.90;99.90
13346;DHT22;6742;48.036;15.780;2023-11-19T04:51:17;2.90;99.90
13346;DHT22;6742;48.036;15.780;2023-11-19T04:53:44;2.90;99.90
13346;DHT22;6742;48.036;15.780;2023-11-19T04:56:11;2.90;99.90
13346;DHT22;6742;48.036;15.780;2023-11-19T04:58:39;2.90;99.90
13346;DHT22;6742;48.036;15.780;2023-11-19T05:01:06;2.90;99.90
13346;DHT22;6742;48.036;15.780;2023-11-19T05:03:34;2.90;99.90
13346;DHT22;6742;48.036;15.780;2023-11-19T05:06:01;2.90;99.90
13346;DHT22;6742;48.036;15.780;2023-11-19T05:08:28;2.90;99.90
13346;DHT22;6742;48.036;15.780;2023-11-19T05:10:55;2.90;99.90
13346;DHT22;6742;48.036;15.780;2023-11-19T05:13:23;3.00;99.90
13346;DHT22;6742;48.036;15.780;2023-11-19T05:15:50;2.90;99.90
13346;DHT22;6742;48.036;15.780;2023-11-19T05:18:17;2.90;99.90
13346;DHT22;6742;48.036;15.780;2023-11-19T05:20:46;3.00;99.90
13346;DHT22;6742;48.036;15.780;2023-11-19T05:23:13;2.90;99.90
13346;DHT22;6742;48.036;15.780;2023-11-19T05:25:40;2.90;99.90
13346;DHT22;6742;48.036;15.780;2023-11-19T05:28:06;2.90;99.90
13346;DHT22;6742;48.036;15.780;2023-11-19T05:30:33;3.00;99.90
13346;DHT22;6742;48.036;15.780;2023-11-19T05:33:00;3.00;99.90
13346;DHT22;6742;48.036;15.780;2023-11-19T05:35:27;3.00;99.90
13346;DHT22;6742;48.036;15.780;2023-11-19T05:37:55;3.00;99.90
13346;DHT22;6742;48.036;15.780;2023-11-19T05:40:22;3.00;99.90
13346;DHT22;6742;48.036;15.780;2023-11-19T05:42:49;3.10;99.90
13346;DHT22;6742;48.036;15.780;2023-11-19T05:45:16;3.10;99.90
13346;DHT22;6742;48.036;15.780;2023-11-19T05:47:43;3.10;99.90
13346;DHT22;6742;48.036;15.780;2023-11-19T05:50:10;3.10;99.90
13346;DHT22;6742;48.036;15.780;2023-11-19T05:52:37;3.10;99.90
13346;DHT22;6742;48.036;15.780;2023-11-19T05:55:06;3.10;99.90
13346;DHT22;6742;48.036;15.780;2023-11-19T05:57:35;3.10;99.90
13346;DHT22;6742;48.036;15.780;2023-11-19T06:00:03;3.00;99.90
13346;DHT22;6742;48.036;15.780;2023-11-19T06:02:32;3.00;99.90
13346;DHT22;6742;48.036;15.780;2023-11-19T06:04:59;3.10;99.90
13346;DHT22;6742;48.036;15.780;2023-11-19T06:07:27;3.10;99.90
13346;DHT22;6742;48.036;15.780;2023-11-19T06:09:53;3.10;99.90
13346;DHT22;6742;48.036;15.780;2023-11-19T06:12:22;3.00;99.90
13346;DHT22;6742;48.036;15.780;2023-11-19T06:14:49;3.10;99.90
13346;DHT22;6742;48.036;15.780;2023-11-19T06:17:16;3.00;99.90
13346;DHT22;6742;48.036;15.780;2023-11-19T06:19:43;3.00;99.90
13346;DHT22;6742;48.036;15.780;2023-11-19T06:22:10;3.00;99.90
13346;DHT22;6742;48.036;15.780;2023-11-19T06:24:37;3.10;99.90
13346;DHT22;6742;48.036;15.780;2023-11-19T06:27:04;3.10;99.90
13346;DHT22;6742;48.036;15.780;2023-11-19T06:29:32;3.10;99.90
13346;DHT22;6742;48.036;15.780;2023-11-19T06:31:59;3.10;99.90
13346;DHT22;6742;48.036;15.780;2023-11-19T06:34:26;3.10;99.90
13346;DHT22;6742;48.036;15.780;2023-11-19T06:36:53;3.10;99.90
13346;DHT22;6742;48.036;15.780;2023-11-19T06:39:20;3.10;99.90
13346;DHT22;6742;48.036;15.780;2023-11-19T06:41:47;3.10;99.90
13346;DHT22;6742;48.036;15.780;2023-11-19T06:44:14;3.10;99.90
13346;DHT22;6742;48.036;15.780;2023-11-19T06:46:42;3.10;99.90
13346;DHT22;6742;48.036;15.780;2023-11-19T06:49:09;3.10;99.90
13346;DHT22;6742;48.036;15.780;2023-11-19T06:51:41;3.10;99.90
13346;DHT22;6742;48.036;15.780;2023-11-19T06:54:08;3.20;99.90
13346;DHT22;6742;48.036;15.780;2023-11-19T06:56:35;3.20;99.90
13346;DHT22;6742;48.036;15.780;2023-11-19T06:59:02;3.20;99.90
13346;DHT22;6742;48.036;15.780;2023-11-19T07:01:34;3.20;99.90
13346;DHT22;6742;48.036;15.780;2023-11-19T07:04:03;3.20;99.90
13346;DHT22;6742;48.036;15.780;2023-11-19T07:06:34;3.20;99.90
13346;DHT22;6742;48.036;15.780;2023-11-19T07:09:02;3.20;99.90
13346;DHT22;6742;48.036;15.780;2023-11-19T07:11:35;3.10;99.90
13346;DHT22;6742;48.036;15.780;2023-11-19T07:14:03;3.00;99.90
13346;DHT22;6742;48.036;15.780;2023-11-19T07:16:30;3.00;99.90
13346;DHT22;6742;48.036;15.780;2023-11-19T07:18:57;3.10;99.90
13346;DHT22;6742;48.036;15.780;2023-11-19T07:21:25;3.10;99.90
13346;DHT22;6742;48.036;15.780;2023-11-19T07:23:53;3.20;99.90
13346;DHT22;6742;48.036;15.780;2023-11-19T07:26:20;3.20;99.90
13346;DHT22;6742;48.036;15.780;2023-11-19T07:28:48;3.30;99.90
13346;DHT22;6742;48.036;15.780;2023-11-19T07:31:15;3.30;99.90
13346;DHT22;6742;48.036;15.780;2023-11-19T07:33:42;3.30;99.90
13346;DHT22;6742;48.036;15.780;2023-11-19T07:36:09;3.40;99.90
13346;DHT22;6742;48.036;15.780;2023-11-19T07:38:38;3.40;99.90
13346;DHT22;6742;48.036;15.780;2023-11-19T07:41:05;3.40;99.90
13346;DHT22;6742;48.036;15.780;2023-11-19T07:43:34;3.50;99.90
13346;DHT22;6742;48.036;15.780;2023-11-19T07:46:01;3.50;99.90
13346;DHT22;6742;48.036;15.780;2023-11-19T07:48:30;3.50;99.90
13346;DHT22;6742;48.036;15.780;2023-11-19T07:50:57;3.50;99.90
13346;DHT22;6742;48.036;15.780;2023-11-19T07:53:24;3.60;99.90
13346;DHT22;6742;48.036;15.780;2023-11-19T07:55:52;3.60;99.90
13346;DHT22;6742;48.036;15.780;2023-11-19T07:58:19;3.60;99.90
13346;DHT22;6742;48.036;15.780;2023-11-19T08:00:46;3.70;99.90
13346;DHT22;6742;48.036;15.780;2023-11-19T08:03:13;3.70;99.90
13346;DHT22;6742;48.036;15.780;2023-11-19T08:05:40;3.70;99.90
13346;DHT22;6742;48.036;15.780;2023-11-19T08:08:06;3.80;99.90
13346;DHT22;6742;48.036;15.780;2023-11-19T08:10:33;3.80;99.90
13346;DHT22;6742;48.036;15.780;2023-11-19T08:13:01;3.70;99.90
13346;DHT22;6742;48.036;15.780;2023-11-19T08:15:28;3.70;99.90
13346;DHT22;6742;48.036;15.780;2023-11-19T08:17:55;3.80;99.90
13346;DHT22;6742;48.036;15.780;2023-11-19T08:20:23;3.80;99.90
13346;DHT22;6742;48.036;15.780;2023-11-19T08:22:50;3.70;99.90
13346;DHT22;6742;48.036;15.780;2023-11-19T08:25:17;3.70;99.90
13346;DHT22;6742;48.036;15.780;2023-11-19T08:27:44;3.80;99.90
13346;DHT22;6742;48.036;15.780;2023-11-19T08:30:14;3.90;99.90
13346;DHT22;6742;48.036;15.780;2023-11-19T08:32:43;4.00;99.90
13346;DHT22;6742;48.036;15.780;2023-11-19T08:35:10;4.00;99.90
13346;DHT22;6742;48.036;15.780;2023-11-19T08:37:36;4.00;99.90
13346;DHT22;6742;48.036;15.780;2023-11-19T08:40:05;4.00;99.90
13346;DHT22;6742;48.036;15.780;2023-11-19T08:42:33;4.00;99.90
13346;DHT22;6742;48.036;15.780;2023-11-19T08:44:59;4.10;99.90
13346;DHT22;6742;48.036;15.780;2023-11-19T08:47:28;4.20;99.90
13346;DHT22;6742;48.036;15.780;2023-11-19T08:49:55;4.20;99.90
13346;DHT22;6742;48.036;15.780;2023-11-19T08:52:22;4.30;99.90
13346;DHT22;6742;48.036;15.780;2023-11-19T08:54:49;4.50;99.90
13346;DHT22;6742;48.036;15.780;2023-11-19T08:57:16;4.50;99.90
13346;DHT22;6742;48.036;15.780;2023-11-19T08:59:42;4.60;99.90
13346;DHT22;6742;48.036;15.780;2023-11-19T09:02:11;4.60;99.90
13346;DHT22;6742;48.036;15.780;2023-11-19T09:04:39;4.70;99.90
13346;DHT22;6742;48.036;15.780;2023-11-19T09:07:06;4.70;99.90
13346;DHT22;6742;48.036;15.780;2023-11-19T09:09:35;4.70;99.90
13346;DHT22;6742;48.036;15.780;2023-11-19T09:12:02;4.80;99.90
13346;DHT22;6742;48.036;15.780;2023-11-19T09:14:29;4.90;99.90
13346;DHT22;6742;48.036;15.780;2023-11-19T09:16:56;5.00;99.90
13346;DHT22;6742;48.036;15.780;2023-11-19T09:19:23;5.10;99.90
13346;DHT22;6742;48.036;15.780;2023-11-19T09:21:53;5.30;99.90
13346;DHT22;6742;48.036;15.780;2023-11-19T09:24:20;5.30;99.90
13346;DHT22;6742;48.036;15.780;2023-11-19T09:26:47;5.40;99.90
13346;DHT22;6742;48.036;15.780;2023-11-19T09:29:14;5.50;99.90
13346;DHT22;6742;48.036;15.780;2023-11-19T09:31:42;5.50;99.90
13346;DHT22;6742;48.036;15.780;2023-11-19T09:34:09;5.60;99.90
13346;DHT22;6742;48.036;15.780;2023-11-19T09:36:36;5.60;99.90
13346;DHT22;6742;48.036;15.780;2023-11-19T09:39:04;5.70;99.90
13346;DHT22;6742;48.036;15.780;2023-11-19T09:41:33;5.80;99.90
13346;DHT22;6742;48.036;15.780;2023-11-19T09:44:00;5.80;99.90
13346;DHT22;6742;48.036;15.780;2023-11-19T09:46:29;5.80;99.90
13346;DHT22;6742;48.036;15.780;2023-11-19T09:48:57;5.90;99.90
13346;DHT22;6742;48.036;15.780;2023-11-19T09:51:25;6.00;99.90
13346;DHT22;6742;48.036;15.780;2023-11-19T09:53:52;6.10;99.90
13346;DHT22;6742;48.036;15.780;2023-11-19T09:56:20;6.20;99.90
13346;DHT22;6742;48.036;15.780;2023-11-19T09:58:47;6.40;99.90
13346;DHT22;6742;48.036;15.780;2023-11-19T10:01:15;6.50;99.90
13346;DHT22;6742;48.036;15.780;2023-11-19T10:03:42;6.70;99.90
13346;DHT22;6742;48.036;15.780;2023-11-19T10:06:11;6.90;99.90
13346;DHT22;6742;48.036;15.780;2023-11-19T10:08:39;7.10;99.90
13346;DHT22;6742;48.036;15.780;2023-11-19T10:11:06;7.20;99.90
13346;DHT22;6742;48.036;15.780;2023-11-19T10:13:35;7.30;99.90
13346;DHT22;6742;48.036;15.780;2023-11-19T10:16:07;7.30;99.90
13346;DHT22;6742;48.036;15.780;2023-11-19T10:18:35;7.40;99.90
13346;DHT22;6742;48.036;15.780;2023-11-19T10:21:04;7.40;99.90
13346;DHT22;6742;48.036;15.780;2023-11-19T10:23:48;7.50;99.90
13346;DHT22;6742;48.036;15.780;2023-11-19T10:26:15;7.50;99.90
13346;DHT22;6742;48.036;15.780;2023-11-19T10:28:44;7.70;99.90
13346;DHT22;6742;48.036;15.780;2023-11-19T10:31:12;7.70;99.90
13346;DHT22;6742;48.036;15.780;2023-11-19T10:33:39;7.80;99.90
13346;DHT22;6742;48.036;15.780;2023-11-19T10:36:07;7.80;99.90
13346;DHT22;6742;48.036;15.780;2023-11-19T10:38:34;7.80;99.90
13346;DHT22;6742;48.036;15.780;2023-11-19T10:41:01;8.00;99.90
13346;DHT22;6742;48.036;15.780;2023-11-19T10:43:28;8.00;99.90
13346;DHT22;6742;48.036;15.780;2023-11-19T10:46:09;8.10;99.90
13346;DHT22;6742;48.036;15.780;2023-11-19T10:48:35;8.20;99.90
13346;DHT22;6742;48.036;15.780;2023-11-19T10:51:05;8.30;99.90
13346;DHT22;6742;48.036;15.780;2023-11-19T10:53:34;8.40;99.90
13346;DHT22;6742;48.036;15.780;2023-11-19T10:56:06;8.50;99.90
13346;DHT22;6742;48.036;15.780;2023-11-19T10:58:35;8.70;99.90
13346;DHT22;6742;48.036;15.780;2023-11-19T11:01:09;8.70;99.90
13346;DHT22;6742;48.036;15.780;2023-11-19T11:03:40;8.80;99.90
13346;DHT22;6742;48.036;15.780;2023-11-19T11:06:07;8.90;99.90
13346;DHT22;6742;48.036;15.780;2023-11-19T11:08:36;9.00;99.90
13346;DHT22;6742;48.036;15.780;2023-11-19T11:11:07;9.10;99.90
13346;DHT22;6742;48.036;15.780;2023-11-19T11:13:37;9.10;99.90
13346;DHT22;6742;48.036;15.780;2023-11-19T11:16:09;9.20;99.90
13346;DHT22;6742;48.036;15.780;2023-11-19T11:18:36;9.30;99.90
13346;DHT22;6742;48.036;15.780;2023-11-19T11:21:07;9.20;99.90
13346;DHT22;6742;48.036;15.780;2023-11-19T11:24:00;9.20;99.90
13346;DHT22;6742;48.036;15.780;2023-11-19T11:26:40;9.20;99.90
13346;DHT22;6742;48.036;15.780;2023-11-19T11:29:16;9.20;99.90
13346;DHT22;6742;48.036;15.780;2023-11-19T11:31:58;9.20;99.90
13346;DHT22;6742;48.036;15.780;2023-11-19T11:34:47;9.20;99.90
13346;DHT22;6742;48.036;15.780;2023-11-19T11:37:19;9.20;99.90
13346;DHT22;6742;48.036;15.780;2023-11-19T11:39:50;9.20;99.90
13346;DHT22;6742;48.036;15.780;2023-11-19T11:42:36;9.20;99.90
13346;DHT22;6742;48.036;15.780;2023-11-19T11:45:05;9.20;99.90
13346;DHT22;6742;48.036;15.780;2023-11-19T11:48:10;9.20;99.90
13346;DHT22;6742;48.036;15.780;2023-11-19T11:50:54;9.30;99.90
13346;DHT22;6742;48.036;15.780;2023-11-19T11:53:22;9.30;99.90
13346;DHT22;6742;48.036;15.780;2023-11-19T11:55:54;9.30;99.90
13346;DHT22;6742;48.036;15.780;2023-11-19T11:58:26;9.30;99.90
13346;DHT22;6742;48.036;15.780;2023-11-19T12:00:57;9.30;99.90
13346;DHT22;6742;48.036;15.780;2023-11-19T12:03:28;9.30;99.90
13346;DHT22;6742;48.036;15.780;2023-11-19T12:05:55;9.30;99.90
13346;DHT22;6742;48.036;15.780;2023-11-19T12:08:25;9.30;99.90
13346;DHT22;6742;48.036;15.780;2023-11-19T12:10:54;9.40;99.90
13346;DHT22;6742;48.036;15.780;2023-11-19T12:13:24;9.30;99.90
13346;DHT22;6742;48.036;15.780;2023-11-19T12:16:10;9.30;99.90
13346;DHT22;6742;48.036;15.780;2023-11-19T12:18:40;9.40;99.90
13346;DHT22;6742;48.036;15.780;2023-11-19T12:21:08;9.40;99.90
13346;DHT22;6742;48.036;15.780;2023-11-19T12:23:45;9.50;99.90
13346;DHT22;6742;48.036;15.780;2023-11-19T12:26:32;9.60;99.90
13346;DHT22;6742;48.036;15.780;2023-11-19T12:29:00;9.50;99.90
13346;DHT22;6742;48.036;15.780;2023-11-19T12:31:29;9.50;99.90
13346;DHT22;6742;48.036;15.780;2023-11-19T12:33:57;9.50;99.90
13346;DHT22;6742;48.036;15.780;2023-11-19T12:36:25;9.60;99.90
13346;DHT22;6742;48.036;15.780;2023-11-19T12:38:53;9.60;99.90
13346;DHT22;6742;48.036;15.780;2023-11-19T12:41:20;9.60;99.90
13346;DHT22;6742;48.036;15.780;2023-11-19T12:43:49;9.60;99.90
13346;DHT22;6742;48.036;15.780;2023-11-19T12:46:20;9.70;99.90
13346;DHT22;6742;48.036;15.780;2023-11-19T12:48:48;9.70;99.90
13346;DHT22;6742;48.036;15.780;2023-11-19T12:51:16;9.80;99.90
13346;DHT22;6742;48.036;15.780;2023-11-19T12:53:50;9.80;99.90
13346;DHT22;6742;48.036;15.780;2023-11-19T12:56:20;9.80;99.90
13346;DHT22;6742;48.036;15.780;2023-11-19T12:58:47;9.80;99.90
13346;DHT22;6742;48.036;15.780;2023-11-19T13:01:16;9.80;99.90
13346;DHT22;6742;48.036;15.780;2023-11-19T13:03:45;9.80;99.90
13346;DHT22;6742;48.036;15.780;2023-11-19T13:06:13;9.90;99.90
13346;DHT22;6742;48.036;15.780;2023-11-19T13:08:44;9.90;99.90
13346;DHT22;6742;48.036;15.780;2023-11-19T13:11:11;10.00;99.90
13346;DHT22;6742;48.036;15.780;2023-11-19T13:13:54;10.00;99.90
13346;DHT22;6742;48.036;15.780;2023-11-19T13:16:22;10.00;99.90
13346;DHT22;6742;48.036;15.780;2023-11-19T13:18:48;10.00;99.90
13346;DHT22;6742;48.036;15.780;2023-11-19T13:21:15;10.10;99.90
13346;DHT22;6742;48.036;15.780;2023-11-19T13:23:44;10.00;99.90
13346;DHT22;6742;48.036;15.780;2023-11-19T13:26:11;10.10;99.90
13346;DHT22;6742;48.036;15.780;2023-11-19T13:28:38;10.10;99.90
13346;DHT22;6742;48.036;15.780;2023-11-19T13:31:06;10.10;99.90
13346;DHT22;6742;48.036;15.780;2023-11-19T13:33:33;10.10;99.90
13346;DHT22;6742;48.036;15.780;2023-11-19T13:36:00;10.10;99.90
13346;DHT22;6742;48.036;15.780;2023-11-19T13:38:31;10.10;99.90
13346;DHT22;6742;48.036;15.780;2023-11-19T13:41:00;10.10;99.90
13346;DHT22;6742;48.036;15.780;2023-11-19T13:43:27;10.10;99.90
13346;DHT22;6742;48.036;15.780;2023-11-19T13:45:54;10.10;99.90
13346;DHT22;6742;48.036;15.780;2023-11-19T13:48:21;10.20;99.90
13346;DHT22;6742;48.036;15.780;2023-11-19T13:50:48;10.20;99.90
13346;DHT22;6742;48.036;15.780;2023-11-19T13:53:15;10.20;99.90
13346;DHT22;6742;48.036;15.780;2023-11-19T13:55:42;10.20;99.90
13346;DHT22;6742;48.036;15.780;2023-11-19T13:58:11;10.20;99.90
13346;DHT22;6742;48.036;15.780;2023-11-19T14:00:38;10.20;99.90
13346;DHT22;6742;48.036;15.780;2023-11-19T14:03:07;10.20;99.90
13346;DHT22;6742;48.036;15.780;2023-11-19T14:05:36;10.20;99.90
13346;DHT22;6742;48.036;15.780;2023-11-19T14:08:03;10.20;99.90
13346;DHT22;6742;48.036;15.780;2023-11-19T14:10:37;10.20;99.90
13346;DHT22;6742;48.036;15.780;2023-11-19T14:13:05;10.10;99.90
13346;DHT22;6742;48.036;15.780;2023-11-19T14:15:34;10.20;99.90
13346;DHT22;6742;48.036;15.780;2023-11-19T14:18:01;10.10;99.90
13346;DHT22;6742;48.036;15.780;2023-11-19T14:20:29;10.10;99.90
13346;DHT22;6742;48.036;15.780;2023-11-19T14:22:56;10.10;99.90
13346;DHT22;6742;48.036;15.780;2023-11-19T14:25:23;10.10;99.90
13346;DHT22;6742;48.036;15.780;2023-11-19T14:27:50;10.10;99.90
13346;DHT22;6742;48.036;15.780;2023-11-19T14:30:17;10.00;99.90
13346;DHT22;6742;48.036;15.780;2023-11-19T14:32:45;10.00;99.90
13346;DHT22;6742;48.036;15.780;2023-11-19T14:35:14;10.00;99.90
13346;DHT22;6742;48.036;15.780;2023-11-19T14:37:40;9.90;99.90
13346;DHT22;6742;48.036;15.780;2023-11-19T14:40:08;9.90;99.90
13346;DHT22;6742;48.036;15.780;2023-11-19T14:42:37;9.80;99.90
13346;DHT22;6742;48.036;15.780;2023-11-19T14:45:05;9.70;99.90
13346;DHT22;6742;48.036;15.780;2023-11-19T14:47:32;9.70;99.90
13346;DHT22;6742;48.036;15.780;2023-11-19T14:50:01;9.60;99.90
13346;DHT22;6742;48.036;15.780;2023-11-19T14:52:28;9.60;99.90
13346;DHT22;6742;48.036;15.780;2023-11-19T14:54:55;9.60;99.90
13346;DHT22;6742;48.036;15.780;2023-11-19T14:57:22;9.60;99.90
13346;DHT22;6742;48.036;15.780;2023-11-19T14:59:49;9.50;99.90
13346;DHT22;6742;48.036;15.780;2023-11-19T15:02:16;9.50;99.90
13346;DHT22;6742;48.036;15.780;2023-11-19T15:04:44;9.50;99.90
13346;DHT22;6742;48.036;15.780;2023-11-19T15:07:12;9.50;99.90
13346;DHT22;6742;48.036;15.780;2023-11-19T15:09:39;9.50;99.90
13346;DHT22;6742;48.036;15.780;2023-11-19T15:12:06;9.50;99.90
13346;DHT22;6742;48.036;15.780;2023-11-19T15:14:34;9.50;99.90
13346;DHT22;6742;48.036;15.780;2023-11-19T15:17:01;9.50;99.90
13346;DHT22;6742;48.036;15.780;2023-11-19T15:19:28;9.50;99.90
13346;DHT22;6742;48.036;15.780;2023-11-19T15:21:55;9.60;99.90
13346;DHT22;6742;48.036;15.780;2023-11-19T15:24:23;9.60;99.90
13346;DHT22;6742;48.036;15.780;2023-11-19T15:26:51;9.60;99.90
13346;DHT22;6742;48.036;15.780;2023-11-19T15:29:18;9.60;99.90
13346;DHT22;6742;48.036;15.780;2023-11-19T15:31:45;9.60;99.90
13346;DHT22;6742;48.036;15.780;2023-11-19T15:34:12;9.60;99.90
13346;DHT22;6742;48.036;15.780;2023-11-19T15:36:39;9.60;99.90
13346;DHT22;6742;48.036;15.780;2023-11-19T15:39:06;9.60;99.90
13346;DHT22;6742;48.036;15.780;2023-11-19T15:41:35;9.60;99.90
13346;DHT22;6742;48.036;15.780;2023-11-19T15:44:02;9.60;99.90
13346;DHT22;6742;48.036;15.780;2023-11-19T15:46:29;9.60;99.90
13346;DHT22;6742;48.036;15.780;2023-11-19T15:48:56;9.60;99.90
13346;DHT22;6742;48.036;15.780;2023-11-19T15:51:23;9.60;99.90